Time;durP1;ratioP1;P1;durP2;ratioP2;P2;SDS_P1;SDS_P2;PMS_P1;PMS_P2;Temp;Humidity;BMP_temperature;BMP_pressure;BME280_temperature;BME280_humidity;BME280_pressure;Samples;Min_cycle;Max_cycle;Signal;HPM_P1;HPM_P2
2023/07/26 00:04:44;;;;;;;1.08;0.43;;;;;;;21.42;46.73;101111.56;16109243;19;129214;-66
2023/07/26 00:10:06;;;;;;;0.80;0.40;;;;;;;21.42;46.75;101103.22;16109889;19;129832;-67
2023/07/26 00:15:28;;;;;;;0.82;0.40;;;;;;;21.40;47.28;101099.03;16116739;19;130328;-66
2023/07/26 00:20:50;;;;;;;2.42;0.60;;;;;;;21.40;47.08;101094.31;16113927;19;130813;-66
2023/07/26 00:26:12;;;;;;;1.15;0.45;;;;;;;21.40;47.26;101088.75;16118151;19;129753;-67
2023/07/26 00:31:34;;;;;;;6.13;0.50;;;;;;;21.39;47.26;101095.44;16114514;19;129728;-66
2023/07/26 00:36:56;;;;;;;0.57;0.40;;;;;;;21.39;46.88;101087.06;16112377;19;130831;-66
2023/07/26 00:42:18;;;;;;;0.52;0.30;;;;;;;21.37;46.81;101081.75;16115015;19;131477;-67
2023/07/26 00:47:41;;;;;;;3.70;0.50;;;;;;;21.39;47.10;101086.22;16111916;19;130952;-67
2023/07/26 00:53:04;;;;;;;1.80;0.40;;;;;;;21.39;47.11;101091.78;16114954;19;129433;-67
2023/07/26 00:58:26;;;;;;;0.98;0.45;;;;;;;21.36;47.22;101085.63;16115616;19;129500;-66
2023/07/26 01:03:48;;;;;;;2.33;0.57;;;;;;;21.36;46.98;101091.19;16125104;19;129547;-66
2023/07/26 01:09:29;;;;;;;1.83;0.40;;;;;;;21.37;46.78;101084.53;16128119;19;131034;-66
2023/07/26 01:15:00;;;;;;;1.58;0.40;;;;;;;21.36;46.79;101087.59;16130867;19;130305;-66
2023/07/26 01:20:21;;;;;;;1.02;0.40;;;;;;;21.34;47.15;101095.34;16126383;19;129611;-67
2023/07/26 01:25:44;;;;;;;0.50;0.30;;;;;;;21.34;47.06;101098.13;16127884;19;129997;-66
2023/07/26 01:31:07;;;;;;;1.77;0.45;;;;;;;21.33;47.12;101093.66;16128717;19;129556;-66
2023/07/26 01:36:30;;;;;;;0.50;0.20;;;;;;;21.32;46.93;101092.84;16124560;19;130497;-65
2023/07/26 01:41:52;;;;;;;1.55;0.40;;;;;;;21.31;47.29;101096.72;16124466;19;129658;-66
2023/07/26 01:47:14;;;;;;;0.63;0.30;;;;;;;21.31;47.03;101090.31;16125839;19;129896;-66
2023/07/26 01:52:35;;;;;;;2.85;0.40;;;;;;;21.30;47.35;101097.81;16126794;19;130034;-66
2023/07/26 01:57:58;;;;;;;0.50;0.30;;;;;;;21.31;47.34;101098.66;16125983;19;131041;-68
2023/07/26 02:03:20;;;;;;;0.28;0.25;;;;;;;21.29;47.28;101093.34;16121032;19;131506;-73
2023/07/26 02:08:42;;;;;;;1.35;0.30;;;;;;;21.29;46.79;101098.09;16126930;19;130163;-72
2023/07/26 02:14:04;;;;;;;0.73;0.20;;;;;;;21.28;47.31;101102.81;16126809;19;129622;-72
2023/07/26 02:19:26;;;;;;;0.30;0.28;;;;;;;21.28;47.02;101102.81;16124903;19;129937;-78
2023/07/26 02:24:48;;;;;;;0.35;0.20;;;;;;;21.27;46.91;101098.34;16124761;19;129192;-70
2023/07/26 02:30:10;;;;;;;0.57;0.30;;;;;;;21.27;47.12;101091.94;16125506;19;129420;-67
2023/07/26 02:35:32;;;;;;;0.40;0.20;;;;;;;21.27;46.85;101091.94;16126539;19;133457;-66
2023/07/26 02:40:54;;;;;;;0.45;0.30;;;;;;;21.26;46.89;101095.81;16126515;19;130167;-66
2023/07/26 02:46:16;;;;;;;1.25;0.50;;;;;;;21.25;46.92;101094.13;16119545;19;130195;-66
2023/07/26 02:51:38;;;;;;;0.52;0.30;;;;;;;21.25;46.90;101091.34;16112598;19;129557;-67
2023/07/26 02:57:00;;;;;;;0.85;0.20;;;;;;;21.25;46.76;101096.94;16117607;19;129466;-67
2023/07/26 03:02:22;;;;;;;1.23;0.30;;;;;;;21.23;46.94;101086.06;16114733;19;129557;-68
2023/07/26 03:07:44;;;;;;;0.47;0.13;;;;;;;21.23;47.02;101077.72;16119035;19;131149;-67
2023/07/26 03:13:06;;;;;;;0.30;0.20;;;;;;;21.21;46.86;101086.31;16116375;19;129929;-67
2023/07/26 03:18:28;;;;;;;0.63;0.30;;;;;;;21.20;46.96;101081.84;16117900;19;129846;-67
2023/07/26 03:23:50;;;;;;;0.88;0.35;;;;;;;21.20;46.98;101095.75;16120484;19;130323;-67
2023/07/26 03:29:12;;;;;;;1.30;0.32;;;;;;;21.19;46.80;101099.63;16117195;19;129702;-67
2023/07/26 03:34:34;;;;;;;0.68;0.40;;;;;;;21.19;47.16;101105.19;16117685;19;131284;-66
2023/07/26 03:39:56;;;;;;;0.28;0.22;;;;;;;21.18;47.10;101111.84;16120175;19;130987;-65
2023/07/26 03:45:18;;;;;;;0.40;0.22;;;;;;;21.18;46.99;101114.63;16117790;19;131258;-67
2023/07/26 03:50:40;;;;;;;0.47;0.30;;;;;;;21.17;46.68;101107.41;16115559;19;131165;-67
2023/07/26 03:56:03;;;;;;;0.43;0.20;;;;;;;21.18;47.07;101108.25;16115230;19;130493;-67
2023/07/26 04:01:25;;;;;;;0.20;0.13;;;;;;;21.16;46.73;101110.44;16114498;19;129294;-66
2023/07/26 04:06:47;;;;;;;0.38;0.20;;;;;;;21.15;46.69;101109.63;16113002;19;131192;-67
2023/07/26 04:12:09;;;;;;;0.20;0.20;;;;;;;21.15;46.66;101109.63;16100813;19;130798;-66
2023/07/26 04:17:31;;;;;;;0.90;0.30;;;;;;;21.14;47.00;101107.94;16117650;19;129895;-67
2023/07/26 04:22:53;;;;;;;0.47;0.20;;;;;;;21.14;46.69;101105.16;16116649;19;129871;-65
2023/07/26 04:28:15;;;;;;;1.05;0.28;;;;;;;21.15;47.03;101106.84;16115222;19;129704;-67
2023/07/26 04:33:36;;;;;;;0.40;0.20;;;;;;;21.17;46.75;101107.41;16117428;19;129656;-67
2023/07/26 04:38:58;;;;;;;0.50;0.28;;;;;;;21.18;46.89;101109.06;16116528;19;130698;-67
2023/07/26 04:44:20;;;;;;;0.63;0.30;;;;;;;21.18;46.62;101114.63;16115583;19;130337;-67
2023/07/26 04:49:42;;;;;;;1.55;0.30;;;;;;;21.19;46.67;101107.97;16113139;19;129936;-67
2023/07/26 04:55:05;;;;;;;0.50;0.30;;;;;;;21.19;46.90;101104.38;16113103;19;129715;-67
2023/07/26 05:00:27;;;;;;;1.55;0.22;;;;;;;21.20;46.46;101123.56;16114675;19;129660;-65
2023/07/26 05:05:50;;;;;;;0.73;0.40;;;;;;;21.21;46.86;101116.09;16114123;19;130017;-66
2023/07/26 05:11:12;;;;;;;1.08;0.45;;;;;;;21.21;46.42;101116.91;16114493;19;132552;-67
2023/07/26 05:16:34;;;;;;;0.57;0.30;;;;;;;21.22;46.37;101115.81;16115476;19;129618;-66
2023/07/26 05:21:56;;;;;;;1.35;0.40;;;;;;;21.22;46.64;101121.38;16118538;19;129820;-66
2023/07/26 05:27:18;;;;;;;2.15;0.40;;;;;;;21.24;46.37;101123.06;16113317;19;129368;-66
2023/07/26 05:32:40;;;;;;;0.50;0.30;;;;;;;21.26;46.69;101123.66;16115360;19;129770;-65
2023/07/26 05:38:02;;;;;;;1.00;0.40;;;;;;;21.27;46.68;101133.69;16108364;19;131210;-63
2023/07/26 05:43:24;;;;;;;0.40;0.20;;;;;;;21.32;46.80;101122.59;16108465;19;129148;-65
2023/07/26 05:48:45;;;;;;;0.55;0.30;;;;;;;21.37;46.49;101134.63;16115824;19;129802;-65
2023/07/26 05:54:08;;;;;;;0.70;0.40;;;;;;;21.43;46.36;101131.91;16123791;19;129753;-66
2023/07/26 05:59:30;;;;;;;1.30;0.30;;;;;;;21.46;46.23;101137.81;16125731;19;129485;-65
2023/07/26 06:04:53;;;;;;;0.98;0.30;;;;;;;21.46;46.61;101146.16;16128628;19;132362;-65
2023/07/26 06:10:15;;;;;;;1.48;0.43;;;;;;;21.47;46.05;101149.78;16124010;19;129552;-65
2023/07/26 06:15:40;;;;;;;;;;;;;;;21.44;46.23;101153.09;16125092;19;129473;-66
2023/07/26 06:21:03;;;;;;;2.10;0.38;;;;;;;21.46;46.40;101162.84;16113914;19;130131;-66
2023/07/26 06:26:25;;;;;;;6.38;0.70;;;;;;;21.44;46.17;101162.25;16122012;19;129350;-66
2023/07/26 06:31:48;;;;;;;2.90;0.50;;;;;;;21.43;46.11;101160.56;16122340;19;129688;-65
2023/07/26 06:37:10;;;;;;;2.67;0.55;;;;;;;21.49;45.97;101170.72;16120038;19;129690;-65
2023/07/26 06:42:32;;;;;;;2.13;0.60;;;;;;;21.54;45.73;101183.84;16118141;19;130631;-65
2023/07/26 06:47:54;;;;;;;2.17;0.57;;;;;;;21.68;45.79;101192.63;16120646;19;129848;-65
2023/07/26 06:53:16;;;;;;;5.60;0.63;;;;;;;21.70;46.05;101184.88;16119586;19;130310;-64
2023/07/26 06:58:38;;;;;;;1.63;0.57;;;;;;;21.70;45.51;101187.66;16119558;19;129911;-65
2023/07/26 07:04:00;;;;;;;3.40;0.52;;;;;;;21.76;45.62;101189.41;16110135;19;129783;-67
2023/07/26 07:09:34;;;;;;;1.17;0.40;;;;;;;21.78;45.55;101184.44;16120632;19;129971;-65
2023/07/26 07:14:57;;;;;;;2.97;1.00;;;;;;;21.75;45.32;101181.28;16118551;19;129524;-65
2023/07/26 07:20:19;;;;;;;1.48;0.55;;;;;;;21.74;45.43;101196.31;16114887;19;130462;-66
2023/07/26 07:25:42;;;;;;;1.52;0.50;;;;;;;21.74;45.49;101199.09;16119039;19;129644;-65
2023/07/26 07:31:03;;;;;;;1.38;0.60;;;;;;;21.75;45.30;101211.94;16117457;19;129569;-65
2023/07/26 07:36:25;;;;;;;1.48;0.63;;;;;;;21.75;45.39;101212.78;16115508;19;130874;-65
2023/07/26 07:41:47;;;;;;;1.65;0.55;;;;;;;21.76;45.50;101225.59;16117505;19;132003;-65
2023/07/26 07:47:09;;;;;;;1.50;0.57;;;;;;;21.76;45.64;101216.41;16117593;19;129433;-65
2023/07/26 07:52:35;;;;;;;2.83;0.70;;;;;;;21.76;45.66;101213.63;16118765;19;129453;-65
2023/07/26 07:58:01;;;;;;;1.42;0.60;;;;;;;21.73;45.54;101217.78;16114241;19;129749;-65
2023/07/26 08:03:22;;;;;;;3.95;0.80;;;;;;;21.74;45.61;101213.88;16118507;19;129760;-65
2023/07/26 08:08:44;;;;;;;4.40;0.80;;;;;;;21.77;45.37;101218.09;16116635;19;129269;-65
2023/07/26 08:14:06;;;;;;;1.08;0.75;;;;;;;21.89;45.39;101212.38;16114539;19;129569;-66
2023/07/26 08:19:28;;;;;;;6.18;0.90;;;;;;;22.00;45.23;101214.16;16114146;19;129727;-65
2023/07/26 08:24:53;;;;;;;8.07;1.30;;;;;;;22.07;44.92;101214.78;16116078;19;129264;-66
2023/07/26 08:30:15;;;;;;;9.40;1.35;;;;;;;22.13;44.76;101219.31;16117503;19;129826;-65
2023/07/26 08:35:38;;;;;;;5.57;1.55;;;;;;;22.19;44.57;101220.22;16113441;19;135264;-65
2023/07/26 08:41:01;;;;;;;11.63;1.10;;;;;;;22.26;44.44;101220.84;16112215;19;129839;-65
2023/07/26 08:46:24;;;;;;;4.30;1.00;;;;;;;22.27;44.26;101221.72;16110117;19;129624;-65
2023/07/26 08:51:46;;;;;;;3.25;1.00;;;;;;;22.29;44.44;101222.28;16112111;19;130723;-66
2023/07/26 08:57:09;;;;;;;11.00;1.70;;;;;;;22.22;44.31;101211.34;16116382;19;130491;-66
2023/07/26 09:02:33;;;;;;;3.88;1.00;;;;;;;22.22;44.48;101216.91;16113557;19;129508;-65
2023/07/26 09:07:55;;;;;;;6.13;1.40;;;;;;;22.23;44.24;101212.19;16115016;19;129871;-66
2023/07/26 09:13:16;;;;;;;8.95;1.40;;;;;;;22.27;43.90;101210.56;16115634;19;129551;-67
2023/07/26 09:18:55;;;;;;;4.72;1.17;;;;;;;22.32;43.80;101210.59;16114190;19;130083;-66
2023/07/26 09:24:17;;;;;;;4.82;1.40;;;;;;;22.27;44.02;101210.56;16118760;19;129971;-65
2023/07/26 09:29:41;;;;;;;5.25;1.30;;;;;;;22.30;43.90;101201.66;16130206;19;130909;-65
2023/07/26 09:35:04;;;;;;;2.00;1.17;;;;;;;22.31;43.77;101208.91;16129606;19;131492;-66
2023/07/26 09:40:31;;;;;;;4.10;1.20;;;;;;;22.28;43.33;101215.00;16125741;19;129777;-66
2023/07/26 09:46:05;;;;;;;2.25;1.50;;;;;;;22.24;43.58;101205.50;16130065;19;134250;-65
2023/07/26 09:51:34;;;;;;;5.25;1.60;;;;;;;22.23;43.52;101218.59;16128143;19;130298;-66
2023/07/26 09:56:57;;;;;;;2.50;1.50;;;;;;;22.26;43.50;101211.66;16129590;19;129608;-65
2023/07/26 10:02:20;;;;;;;2.85;1.42;;;;;;;22.20;43.25;101196.81;16125390;19;129663;-65
2023/07/26 10:07:44;;;;;;;5.13;1.50;;;;;;;22.22;43.64;101210.50;16125322;19;129918;-65
2023/07/26 10:13:08;;;;;;;1.95;1.25;;;;;;;22.23;43.23;101206.63;16119711;19;130635;-65
2023/07/26 10:18:32;;;;;;;4.53;1.70;;;;;;;22.23;42.84;101212.19;16118180;19;129732;-64
2023/07/26 10:23:58;;;;;;;2.90;1.67;;;;;;;22.17;42.80;101207.63;16119870;19;129797;-67
2023/07/26 10:29:20;;;;;;;2.75;1.77;;;;;;;22.12;43.20;101211.22;16119583;19;129037;-65
2023/07/26 10:34:42;;;;;;;4.93;1.77;;;;;;;22.08;43.13;101222.03;16118905;19;129731;-68
2023/07/26 10:40:38;;;;;;;3.85;1.73;;;;;;;22.02;43.21;101223.09;16117313;19;129293;-66
2023/07/26 10:46:11;;;;;;;4.25;1.65;;;;;;;22.05;43.31;101225.34;16115417;19;130594;-66
2023/07/26 10:51:33;;;;;;;2.38;1.48;;;;;;;22.07;43.35;101225.94;16122007;19;130719;-64
2023/07/26 10:57:16;;;;;;;3.80;1.60;;;;;;;22.12;42.97;101223.22;16126614;19;129730;-66
2023/07/26 11:02:44;;;;;;;2.47;1.70;;;;;;;22.12;43.23;101228.78;16116139;19;131127;-68
2023/07/26 11:08:08;;;;;;;5.82;2.10;;;;;;;22.11;42.92;101229.03;16116213;19;130681;-65
2023/07/26 11:13:30;;;;;;;5.68;1.73;;;;;;;22.07;43.10;101231.50;16114732;19;129994;-64
2023/07/26 11:18:51;;;;;;;3.45;1.48;;;;;;;22.05;43.51;101230.09;16119945;19;129523;-65
2023/07/26 11:24:14;;;;;;;4.47;2.00;;;;;;;22.05;43.23;101230.09;16118355;19;130358;-64
2023/07/26 11:29:36;;;;;;;4.57;1.85;;;;;;;22.05;43.23;101232.88;16119098;19;129618;-65
2023/07/26 11:34:58;;;;;;;2.72;1.50;;;;;;;22.07;43.07;101231.50;16120069;19;129666;-65
2023/07/26 11:40:20;;;;;;;4.38;1.70;;;;;;;22.10;43.11;101218.97;16121224;19;129845;-65
2023/07/26 11:45:43;;;;;;;3.25;1.90;;;;;;;22.13;42.74;101222.09;16118345;19;129773;-65
2023/07/26 11:51:05;;;;;;;3.47;2.00;;;;;;;22.11;43.12;101223.44;16121009;19;129633;-66
2023/07/26 11:56:30;;;;;;;3.05;1.77;;;;;;;22.13;43.18;101207.31;16115178;19;129540;-65
2023/07/26 12:01:53;;;;;;;;;;;;;;;22.13;42.94;101213.75;16121507;19;132906;-66
2023/07/26 12:07:15;;;;;;;6.22;2.40;;;;;;;22.12;42.37;101217.63;16125572;19;129363;-62
2023/07/26 12:12:43;;;;;;;5.13;2.22;;;;;;;22.17;41.85;101227.13;16129835;19;130370;-64
2023/07/26 12:18:07;;;;;;;3.38;1.98;;;;;;;22.20;41.54;101230.25;16146694;19;129277;-65
2023/07/26 12:23:51;;;;;;;10.57;2.90;;;;;;;22.22;40.32;101218.88;16163171;19;129351;-64
2023/07/26 12:29:14;;;;;;;7.65;2.40;;;;;;;22.21;39.61;101222.75;16177844;19;130445;-66
2023/07/26 12:34:41;;;;;;;9.98;2.67;;;;;;;22.21;39.43;101231.13;16145290;19;129038;-66
2023/07/26 12:40:03;;;;;;;6.43;2.75;;;;;;;22.25;38.84;101233.09;16134636;19;129572;-65
2023/07/26 12:45:25;;;;;;;3.95;2.70;;;;;;;22.23;38.60;101228.91;16123405;19;131227;-66
2023/07/26 12:50:49;;;;;;;6.28;2.47;;;;;;;22.22;38.84;101238.38;16138697;19;130064;-65
2023/07/26 12:56:11;;;;;;;5.63;2.42;;;;;;;22.19;39.28;101238.88;16142161;19;130096;-63
2023/07/26 13:01:33;;;;;;;6.40;2.70;;;;;;;22.19;39.16;101233.28;16145291;19;133565;-63
2023/07/26 13:06:55;;;;;;;4.75;2.33;;;;;;;22.17;39.28;101229.91;16143485;19;129385;-64
2023/07/26 13:12:17;;;;;;;4.68;2.33;;;;;;;22.18;39.72;101237.19;16140650;19;129934;-65
2023/07/26 13:17:39;;;;;;;8.32;2.35;;;;;;;22.18;39.38;101223.25;16145586;19;129572;-66
2023/07/26 13:23:01;;;;;;;4.25;2.47;;;;;;;22.17;39.22;101235.50;16134731;19;129714;-66
2023/07/26 13:28:23;;;;;;;9.98;2.78;;;;;;;22.16;39.08;101229.09;16135196;19;129641;-66
2023/07/26 13:33:45;;;;;;;7.95;2.58;;;;;;;22.19;38.92;101227.72;16141529;19;129187;-67
2023/07/26 13:39:12;;;;;;;4.45;2.17;;;;;;;22.20;38.82;101224.69;16142989;19;130016;-67
2023/07/26 13:44:35;;;;;;;5.93;2.40;;;;;;;22.21;38.99;101226.41;16142992;19;128969;-67
2023/07/26 13:49:57;;;;;;;4.65;2.00;;;;;;;22.23;38.74;101217.75;16145020;19;130798;-66
2023/07/26 13:55:19;;;;;;;5.95;2.40;;;;;;;22.21;39.03;101219.97;16140487;19;129233;-65
2023/07/26 14:00:41;;;;;;;4.80;2.17;;;;;;;22.20;39.24;101224.69;16143475;19;129100;-66
2023/07/26 14:06:04;;;;;;;3.25;1.83;;;;;;;22.23;38.81;101217.75;16144662;19;130640;-67
2023/07/26 14:11:26;;;;;;;2.15;1.70;;;;;;;22.27;39.39;101218.94;16138513;19;129998;-66
2023/07/26 14:16:48;;;;;;;3.03;2.10;;;;;;;22.27;39.31;101216.97;16140056;19;130205;-67
2023/07/26 14:22:10;;;;;;;3.97;1.75;;;;;;;22.29;39.25;101213.91;16141240;19;129151;-67
2023/07/26 14:27:32;;;;;;;6.70;1.88;;;;;;;22.28;39.42;101213.06;16133547;19;129378;-66
2023/07/26 14:32:54;;;;;;;6.32;2.03;;;;;;;22.28;39.70;101223.38;16132177;19;129589;-65
2023/07/26 14:38:16;;;;;;;7.10;1.80;;;;;;;22.29;39.24;101213.91;16123171;19;130193;-65
2023/07/26 14:43:38;;;;;;;20.55;2.30;;;;;;;22.28;39.52;101204.72;16123907;19;132086;-67
2023/07/26 14:49:00;;;;;;;28.08;3.15;;;;;;;22.25;39.65;101207.19;16119947;19;129733;-65
2023/07/26 14:54:22;;;;;;;14.23;2.40;;;;;;;22.20;39.75;101202.38;16121397;19;130114;-65
2023/07/26 14:59:47;;;;;;;15.30;2.50;;;;;;;22.21;39.73;101200.47;16120354;19;129756;-65
2023/07/26 15:05:09;;;;;;;6.22;2.42;;;;;;;22.16;40.17;101201.22;16124554;19;131292;-61
2023/07/26 15:10:31;;;;;;;9.25;2.20;;;;;;;22.18;40.07;101199.03;16160687;19;129880;-63
2023/07/26 15:15:53;;;;;;;8.57;2.00;;;;;;;22.18;40.14;101196.22;16202721;19;132637;-64
2023/07/26 15:21:15;;;;;;;5.90;2.00;;;;;;;22.14;40.40;101197.84;16201974;19;129468;-62
2023/07/26 15:26:37;;;;;;;4.35;1.85;;;;;;;22.14;40.53;101192.28;16204251;19;130864;-62
2023/07/26 15:31:59;;;;;;;4.55;2.08;;;;;;;22.13;40.19;101180.31;16204825;19;128346;-64
2023/07/26 15:37:22;;;;;;;4.22;2.28;;;;;;;22.10;40.16;101180.84;16201741;19;129160;-63
2023/07/26 15:42:44;;;;;;;5.13;2.10;;;;;;;22.10;39.99;101172.47;16189754;19;128826;-63
2023/07/26 15:48:08;;;;;;;4.23;1.90;;;;;;;22.08;40.50;101168.28;16155777;19;130803;-63
2023/07/26 15:53:30;;;;;;;7.30;1.75;;;;;;;22.10;40.80;101161.34;16160441;19;130353;-64
2023/07/26 15:58:52;;;;;;;7.60;2.53;;;;;;;22.13;40.58;101171.09;16162816;19;129283;-64
2023/07/26 16:04:14;;;;;;;4.75;1.98;;;;;;;22.13;40.78;101166.38;16155668;19;129777;-63
2023/07/26 16:09:39;;;;;;;4.83;2.40;;;;;;;22.11;40.41;101171.38;16162246;19;129816;-63
2023/07/26 16:15:01;;;;;;;6.03;2.30;;;;;;;22.12;40.86;101164.69;16134827;19;129935;-62
2023/07/26 16:20:26;;;;;;;10.47;2.57;;;;;;;22.11;40.80;101164.94;16110020;19;130243;-63
2023/07/26 16:25:49;;;;;;;6.25;2.25;;;;;;;22.09;41.01;101165.22;16112905;19;129282;-64
2023/07/26 16:31:11;;;;;;;6.28;2.38;;;;;;;22.08;40.74;101160.75;16111375;19;129872;-63
2023/07/26 16:36:33;;;;;;;3.88;2.00;;;;;;;22.08;41.28;101155.19;16105745;19;132735;-66
2023/07/26 16:41:55;;;;;;;6.93;2.30;;;;;;;22.11;40.89;101151.88;16110931;19;129759;-67
2023/07/26 16:47:17;;;;;;;4.38;2.03;;;;;;;22.19;40.48;101160.84;16110029;19;131139;-67
2023/07/26 16:52:39;;;;;;;6.25;2.25;;;;;;;22.25;39.51;101143.09;16111380;19;130772;-61
2023/07/26 16:58:01;;;;;;;10.30;2.25;;;;;;;22.32;39.17;101137.31;16113712;19;130706;-66
2023/07/26 17:03:23;;;;;;;7.60;2.10;;;;;;;22.35;38.98;101140.38;16111888;19;129639;-69
2023/07/26 17:08:45;;;;;;;6.78;2.40;;;;;;;22.39;38.73;101141.53;16115870;19;129972;-67
2023/07/26 17:14:07;;;;;;;4.22;2.30;;;;;;;22.41;39.05;101158.00;16116862;19;129622;-63
2023/07/26 17:19:29;;;;;;;4.13;2.17;;;;;;;22.45;38.62;101156.38;16116593;19;129745;-75
2023/07/26 17:24:51;;;;;;;6.40;1.92;;;;;;;22.48;38.81;101132.69;16108766;19;130615;-64
2023/07/26 17:30:13;;;;;;;4.07;1.65;;;;;;;22.50;38.92;101110.94;16107824;19;131266;-65
2023/07/26 17:35:35;;;;;;;3.22;1.92;;;;;;;22.47;38.82;101117.88;16109140;19;129629;-64
2023/07/26 17:41:05;;;;;;;3.40;2.15;;;;;;;22.47;38.95;101131.00;16085629;19;129776;-61
2023/07/26 17:46:29;;;;;;;5.43;1.95;;;;;;;22.48;39.03;101133.50;16111821;19;129810;-73
2023/07/26 17:51:52;;;;;;;2.65;1.92;;;;;;;22.49;39.43;101134.38;16124422;19;130156;-64
2023/07/26 17:57:14;;;;;;;3.40;1.77;;;;;;;22.50;39.05;101127.69;16123170;19;130725;-70
2023/07/26 18:02:36;;;;;;;2.63;1.90;;;;;;;22.49;39.20;101124.03;16127347;19;130393;-66
2023/07/26 18:07:58;;;;;;;3.72;1.80;;;;;;;22.51;39.03;101129.38;16128574;19;129732;-67
2023/07/26 18:13:20;;;;;;;4.18;2.05;;;;;;;22.50;39.31;101131.28;16128226;19;132488;-70
2023/07/26 18:18:43;;;;;;;4.13;1.80;;;;;;;22.50;39.65;101125.72;16125679;19;129405;-68
2023/07/26 18:24:05;;;;;;;3.45;1.50;;;;;;;22.49;39.51;101117.63;16117768;19;130270;-68
2023/07/26 18:29:27;;;;;;;3.22;1.70;;;;;;;22.46;39.77;101120.94;16118221;19;130651;-68
2023/07/26 18:34:49;;;;;;;4.03;1.40;;;;;;;22.42;39.58;101121.47;16122549;19;129616;-69
2023/07/26 18:40:11;;;;;;;4.38;1.55;;;;;;;22.42;39.60;101110.31;16125835;19;129528;-68
2023/07/26 18:45:33;;;;;;;5.78;1.65;;;;;;;22.41;39.95;101114.22;16131252;19;130143;-74
2023/07/26 18:50:55;;;;;;;2.08;1.42;;;;;;;22.43;40.27;101113.97;16131521;19;131150;-72
2023/07/26 18:56:17;;;;;;;5.10;1.80;;;;;;;22.44;40.13;101119.28;16129121;19;129783;-68
2023/07/26 19:01:39;;;;;;;3.10;1.80;;;;;;;22.43;40.27;101116.75;16127804;19;129892;-65
2023/07/26 19:07:01;;;;;;;2.97;1.35;;;;;;;22.41;40.26;101108.66;16124179;19;130391;-60
2023/07/26 19:12:23;;;;;;;5.88;1.60;;;;;;;22.42;40.47;101117.88;16120034;19;129794;-64
2023/07/26 19:17:45;;;;;;;3.10;1.70;;;;;;;22.42;40.32;101121.47;16124521;19;129867;-68
2023/07/26 19:23:08;;;;;;;2.38;1.30;;;;;;;22.42;40.63;101121.47;16120734;19;130648;-65
2023/07/26 19:28:31;;;;;;;2.15;1.30;;;;;;;22.41;40.95;101128.16;16121783;19;130173;-63
2023/07/26 19:33:53;;;;;;;2.83;1.77;;;;;;;22.41;40.81;101125.38;16118646;19;130793;-64
2023/07/26 19:39:15;;;;;;;3.53;1.48;;;;;;;22.41;40.64;101136.53;16119582;19;133854;-67
2023/07/26 19:44:37;;;;;;;3.70;1.55;;;;;;;22.42;40.98;101138.19;16115820;19;130115;-64
2023/07/26 19:49:59;;;;;;;4.25;1.70;;;;;;;22.41;40.87;101136.53;16111592;19;129561;-61
2023/07/26 19:55:21;;;;;;;3.83;1.50;;;;;;;22.42;40.87;101137.38;16108831;19;129922;-63
2023/07/26 20:00:43;;;;;;;3.40;1.52;;;;;;;22.41;40.96;101135.69;16116144;19;129829;-68
2023/07/26 20:06:05;;;;;;;2.25;1.75;;;;;;;22.37;41.18;101134.53;16116269;19;131362;-69
2023/07/26 20:11:27;;;;;;;3.70;1.50;;;;;;;22.35;41.21;101126.44;16110204;19;130231;-64
2023/07/26 20:16:49;;;;;;;2.83;1.40;;;;;;;22.37;41.05;101129.81;16113677;19;130645;-64
2023/07/26 20:22:12;;;;;;;2.22;1.42;;;;;;;22.39;41.43;101124.81;16115754;19;130566;-68
2023/07/26 20:27:34;;;;;;;4.10;1.38;;;;;;;22.39;41.29;101116.47;16119777;19;129390;-66
2023/07/26 20:32:57;;;;;;;4.88;1.50;;;;;;;22.39;41.72;101112.81;16112270;19;129654;-67
2023/07/26 20:38:19;;;;;;;2.20;1.40;;;;;;;22.35;41.35;101111.66;16108844;19;130488;-68
2023/07/26 20:43:41;;;;;;;4.20;1.40;;;;;;;22.32;41.22;101115.84;16110678;19;129582;-68
2023/07/26 20:49:03;;;;;;;2.22;1.42;;;;;;;22.28;41.78;101104.38;16114708;19;130474;-69
2023/07/26 20:54:25;;;;;;;2.85;1.52;;;;;;;22.25;41.68;101084.56;16108928;19;129867;-68
2023/07/26 20:59:47;;;;;;;1.83;1.55;;;;;;;22.23;41.90;101084.00;16114871;19;130442;-69
2023/07/26 21:05:10;;;;;;;2.83;1.65;;;;;;;22.21;41.79;101086.22;16110501;19;129180;-68
2023/07/26 21:10:32;;;;;;;3.53;1.48;;;;;;;22.19;41.79;101078.09;16110519;19;129904;-69
2023/07/26 21:15:54;;;;;;;3.10;1.48;;;;;;;22.18;41.92;101075.56;16113626;19;130724;-69
2023/07/26 21:21:16;;;;;;;4.00;2.00;;;;;;;22.16;42.00;101066.63;16118952;19;130851;-69
2023/07/26 21:26:38;;;;;;;2.28;1.50;;;;;;;22.14;42.08;101058.53;16127552;19;133215;-69
2023/07/26 21:32:00;;;;;;;3.60;1.30;;;;;;;22.13;41.92;101057.72;16126350;19;129489;-68
2023/07/26 21:37:22;;;;;;;3.85;1.73;;;;;;;22.11;42.18;101047.91;16127609;19;129587;-69
2023/07/26 21:42:44;;;;;;;2.92;1.30;;;;;;;22.11;42.00;101040.41;16127584;19;129584;-68
2023/07/26 21:48:07;;;;;;;1.55;1.20;;;;;;;22.09;42.04;101045.41;16125362;19;130307;-69
2023/07/26 21:53:29;;;;;;;1.42;1.20;;;;;;;22.08;41.94;101051.25;16123363;19;129669;-68
2023/07/26 21:58:51;;;;;;;1.15;1.05;;;;;;;22.06;42.06;101045.94;16130124;19;129772;-68
2023/07/26 22:04:13;;;;;;;1.67;1.30;;;;;;;22.05;41.96;101033.13;16123959;19;133379;-68
2023/07/26 22:09:37;;;;;;;2.28;1.40;;;;;;;22.04;42.21;101042.56;16126016;19;130577;-68
2023/07/26 22:14:59;;;;;;;1.73;1.40;;;;;;;22.04;42.27;101036.19;16124966;19;130579;-68
2023/07/26 22:20:21;;;;;;;2.53;1.50;;;;;;;22.01;42.25;101037.56;16124615;19;129840;-68
2023/07/26 22:25:46;;;;;;;2.33;1.40;;;;;;;22.01;42.13;101032.00;16123456;19;130718;-67
2023/07/26 22:31:19;;;;;;;1.85;1.40;;;;;;;22.00;42.67;101030.31;16123995;19;129732;-68
2023/07/26 22:36:41;;;;;;;2.10;1.40;;;;;;;22.00;42.36;101029.44;16123136;19;129981;-68
2023/07/26 22:42:04;;;;;;;1.88;1.20;;;;;;;21.98;42.75;101026.94;16124321;19;131056;-67
2023/07/26 22:47:25;;;;;;;2.15;1.40;;;;;;;21.97;42.49;101033.63;16118798;19;131057;-68
2023/07/26 22:52:47;;;;;;;2.58;1.25;;;;;;;21.95;42.26;101030.25;16120743;19;129462;-68
2023/07/26 22:58:09;;;;;;;2.45;1.27;;;;;;;21.95;42.53;101027.47;16120718;19;131556;-67
2023/07/26 23:03:31;;;;;;;1.85;1.40;;;;;;;21.93;42.61;101015.75;16125186;19;129861;-69
2023/07/26 23:08:53;;;;;;;1.42;1.20;;;;;;;21.93;42.45;101007.41;16119960;19;131703;-68
2023/07/26 23:14:17;;;;;;;3.17;1.40;;;;;;;21.92;42.67;101001.00;16117603;19;129855;-67
2023/07/26 23:19:39;;;;;;;2.10;1.25;;;;;;;21.91;42.94;100993.75;16116508;19;130879;-68
2023/07/26 23:25:01;;;;;;;1.27;1.15;;;;;;;21.91;42.68;100979.00;16120123;19;129438;-68
2023/07/26 23:30:23;;;;;;;1.85;1.30;;;;;;;21.89;42.76;100978.41;16122529;19;129794;-68
2023/07/26 23:35:46;;;;;;;1.30;1.10;;;;;;;21.90;42.77;100971.75;16120802;19;129707;-68
2023/07/26 23:41:09;;;;;;;2.00;1.40;;;;;;;21.88;42.79;100960.03;16118681;19;130572;-68
2023/07/26 23:46:32;;;;;;;2.40;1.23;;;;;;;21.86;42.91;100946.34;16114308;19;129564;-69
2023/07/26 23:51:54;;;;;;;2.20;1.27;;;;;;;21.85;42.87;100938.28;16116238;19;129771;-69
2023/07/26 23:57:16;;;;;;;1.60;1.10;;;;;;;21.86;42.67;100939.97;16116567;19;130500;-68
